Watrous, New Mexico
Current Conditions -  °F | °C
As of 2:53 AM on Monday 20 Oct 2014 (Local Time) from KLVS Reporting Station
Clear Clear  
Wind Chill: 42°   Ceiling: Unl
Heat Index: 42°   Visibility: 10mi
Dew Point: 37°   Wind: 3mph
Humidity: 82%   Direction: 250°WSW
Pressure: 30.24"   Gusts: NA
Location:  35.79°N, 104.98°W
Report Text: KLVS 200853Z AUTO 25003KT 10SM CLR 06/03 A3024 RMK AO2 SLP177 T00560028 52004
Loading
Personal Weather Stations






























Interactive Weather Map
Tropical Storm Tracking
New forecast layout! Learn more

10-Day Weather Forecast

Advertisements
Track Severe Weather on mobile